Time;durP1;ratioP1;P1;durP2;ratioP2;P2;SDS_P1;SDS_P2;PMS_P1;PMS_P2;Temp;Humidity;BMP_temperature;BMP_pressure;BME280_temperature;BME280_humidity;BME280_pressure;Samples;Min_cycle;Max_cycle;Signal;HPM_P1;HPM_P2
2023/07/11 00:01:17;;;;;;;5.10;2.40;;;;;;;13.68;100.00;100650.96;105649;1255;73031;-43
2023/07/11 00:03:46;;;;;;;10.10;2.20;;;;;;;13.67;100.00;100645.26;105681;1259;63865;-43
2023/07/11 00:06:18;;;;;;;5.60;2.20;;;;;;;13.68;100.00;100643.32;105659;1257;71490;-45
2023/07/11 00:08:46;;;;;;;5.10;2.30;;;;;;;13.67;100.00;100634.49;105664;1258;61638;-43
2023/07/11 00:11:17;;;;;;;2.60;2.20;;;;;;;13.66;100.00;100631.56;105696;1259;59637;-43
2023/07/11 00:13:44;;;;;;;6.50;2.30;;;;;;;13.66;100.00;100631.92;105675;1253;71762;-44
2023/07/11 00:16:13;;;;;;;2.70;2.30;;;;;;;13.68;100.00;100632.39;105667;1253;63899;-43
2023/07/11 00:18:41;;;;;;;3.20;2.30;;;;;;;13.66;100.00;100624.98;105688;1256;70415;-45
2023/07/11 00:21:09;;;;;;;4.50;2.30;;;;;;;13.64;100.00;100622.44;105632;1254;59785;-42
2023/07/11 00:23:36;;;;;;;3.80;2.20;;;;;;;13.64;100.00;100623.30;105676;1256;59612;-44
2023/07/11 00:26:04;;;;;;;5.10;2.40;;;;;;;13.64;100.00;100617.57;105700;1253;71718;-42
2023/07/11 00:28:32;;;;;;;5.80;2.60;;;;;;;13.62;100.00;100611.06;105642;1259;63918;-45
2023/07/11 00:31:00;;;;;;;2.40;2.20;;;;;;;13.59;100.00;100608.36;105683;1254;75562;-45
2023/07/11 00:33:29;;;;;;;6.40;2.70;;;;;;;13.56;100.00;100610.17;105680;1253;61861;-44
2023/07/11 00:35:56;;;;;;;10.80;2.20;;;;;;;13.53;100.00;100603.67;105647;1258;59552;-44
2023/07/11 00:38:25;;;;;;;2.20;2.00;;;;;;;13.53;100.00;100601.79;105666;1253;71590;-44
2023/07/11 00:40:53;;;;;;;3.60;2.40;;;;;;;13.53;100.00;100599.70;105693;1259;64037;-43
2023/07/11 00:43:21;;;;;;;5.20;2.50;;;;;;;13.53;100.00;100600.05;105665;1254;72653;-44
2023/07/11 00:45:57;;;;;;;3.10;1.80;;;;;;;13.53;100.00;100597.27;105702;1254;61677;-44
2023/07/11 00:48:24;;;;;;;26.60;2.50;;;;;;;13.52;100.00;100596.61;105673;1253;60005;-44
2023/07/11 00:50:53;;;;;;;2.60;2.30;;;;;;;13.51;100.00;100592.97;105686;1258;71611;-45
2023/07/11 00:53:21;;;;;;;8.70;2.70;;;;;;;13.50;100.00;100591.77;105684;1253;65151;-44
2023/07/11 00:55:49;;;;;;;3.20;1.90;;;;;;;13.48;100.00;100586.98;105654;1254;72793;-45
2023/07/11 00:58:16;;;;;;;2.20;2.10;;;;;;;13.44;100.00;100587.45;105613;1253;60818;-44
2023/07/11 01:00:44;;;;;;;5.60;2.10;;;;;;;13.45;100.00;100587.59;105665;1253;59983;-45
2023/07/11 01:03:12;;;;;;;10.50;2.20;;;;;;;13.44;100.00;100587.27;105668;1253;71906;-43
2023/07/11 01:05:40;;;;;;;2.30;2.10;;;;;;;13.43;100.00;100584.00;105659;1253;64072;-45
2023/07/11 01:08:09;;;;;;;2.50;2.30;;;;;;;13.45;100.00;100582.58;105643;1259;71451;-43
2023/07/11 01:10:36;;;;;;;3.60;2.00;;;;;;;13.45;100.00;100585.00;105670;1254;60641;-44
2023/07/11 01:13:04;;;;;;;6.50;2.30;;;;;;;13.42;100.00;100586.11;105633;1258;59562;-43
2023/07/11 01:15:32;;;;;;;7.00;2.30;;;;;;;13.41;100.00;100581.96;105679;1253;71754;-45
2023/07/11 01:18:00;;;;;;;2.60;1.90;;;;;;;13.39;100.00;100579.59;105720;1259;65148;-45
2023/07/11 01:20:27;;;;;;;2.10;2.00;;;;;;;13.36;100.00;100576.36;105653;1258;72303;-43
2023/07/11 01:22:55;;;;;;;2.90;2.30;;;;;;;13.36;100.00;100577.06;105699;1259;60440;-44
2023/07/11 01:25:23;;;;;;;4.40;2.00;;;;;;;13.36;100.00;100574.82;105681;1258;60049;-43
2023/07/11 01:27:51;;;;;;;3.40;2.40;;;;;;;13.34;100.00;100570.01;105682;1259;71047;-44
2023/07/11 01:30:21;;;;;;;8.50;2.50;;;;;;;13.31;100.00;100569.59;105676;1253;64014;-45
2023/07/11 01:32:49;;;;;;;4.10;2.00;;;;;;;13.27;100.00;100571.25;105676;1253;72615;-45
2023/07/11 01:35:17;;;;;;;4.20;2.40;;;;;;;13.26;100.00;100576.66;105675;1257;61641;-44
2023/07/11 01:37:45;;;;;;;2.10;1.90;;;;;;;13.21;100.00;100582.14;105701;1253;60216;-45
2023/07/11 01:40:12;;;;;;;4.00;2.10;;;;;;;13.16;100.00;100583.34;105652;1253;71804;-44
2023/07/11 01:42:41;;;;;;;6.50;2.20;;;;;;;13.11;100.00;100583.99;105654;1253;63910;-45
2023/07/11 01:45:10;;;;;;;2.40;1.80;;;;;;;13.09;100.00;100584.90;105625;1256;70847;-45
2023/07/11 01:47:37;;;;;;;3.30;2.10;;;;;;;13.09;100.00;100583.70;105701;1255;59741;-45
2023/07/11 01:50:06;;;;;;;4.20;2.20;;;;;;;13.07;100.00;100576.13;105670;1259;59508;-44
2023/07/11 01:52:35;;;;;;;2.50;2.30;;;;;;;13.05;100.00;100574.26;105730;1253;73129;-44
2023/07/11 01:55:05;;;;;;;3.40;2.30;;;;;;;13.07;100.00;100572.64;105730;1257;65158;-44
2023/07/11 01:57:33;;;;;;;9.90;2.30;;;;;;;13.11;100.00;100572.89;105666;1255;71446;-43
2023/07/11 02:00:01;;;;;;;7.00;2.20;;;;;;;13.12;100.00;100571.15;105634;1260;61042;-43
2023/07/11 02:02:28;;;;;;;3.10;2.80;;;;;;;13.10;100.00;100576.73;105636;1254;60008;-44
2023/07/11 02:04:56;;;;;;;4.80;2.10;;;;;;;13.09;100.00;100579.71;105658;1253;71787;-45
2023/07/11 02:07:24;;;;;;;5.00;2.40;;;;;;;13.09;100.00;100580.40;105689;1258;63940;-43
2023/07/11 02:09:51;;;;;;;3.70;2.00;;;;;;;13.10;100.00;100577.95;105651;1258;71183;-43
2023/07/11 02:12:19;;;;;;;9.10;2.80;;;;;;;13.13;100.00;100577.19;105658;1258;60393;-42
2023/07/11 02:14:47;;;;;;;2.50;2.30;;;;;;;13.15;100.00;100575.73;105657;1253;59587;-43
2023/07/11 02:17:15;;;;;;;6.80;2.80;;;;;;;13.18;100.00;100577.55;105646;1259;73526;-42
2023/07/11 02:19:44;;;;;;;11.10;2.80;;;;;;;13.19;100.00;100573.72;105637;1253;64346;-43
2023/07/11 02:22:12;;;;;;;3.50;2.30;;;;;;;13.19;100.00;100570.09;105658;1253;72714;-44
2023/07/11 02:24:40;;;;;;;6.70;2.80;;;;;;;13.17;100.00;100575.52;105678;1255;61632;-42
2023/07/11 02:27:08;;;;;;;3.60;2.80;;;;;;;13.14;100.00;100580.45;105675;1258;60167;-44
2023/07/11 02:29:36;;;;;;;2.50;2.30;;;;;;;13.12;100.00;100579.27;105668;1253;71811;-44
2023/07/11 02:32:04;;;;;;;2.80;2.60;;;;;;;13.14;100.00;100578.37;105647;1254;63975;-43
2023/07/11 02:34:31;;;;;;;3.40;2.50;;;;;;;13.15;100.00;100572.11;105739;1259;71402;-43
2023/07/11 02:36:59;;;;;;;2.60;2.40;;;;;;;13.15;100.00;100577.98;105648;1254;61668;-43
2023/07/11 02:39:26;;;;;;;9.10;2.80;;;;;;;13.14;100.00;100577.84;105675;1253;60070;-41
2023/07/11 02:41:54;;;;;;;4.30;2.60;;;;;;;13.15;100.00;100576.41;105649;1253;71805;-44
2023/07/11 02:44:21;;;;;;;6.20;2.50;;;;;;;13.18;100.00;100576.87;105714;1259;64036;-43
2023/07/11 02:46:49;;;;;;;8.60;2.90;;;;;;;13.22;100.00;100567.92;105624;1254;72671;-43
2023/07/11 02:49:18;;;;;;;2.80;2.60;;;;;;;13.26;100.00;100568.86;105684;1253;60679;-45
2023/07/11 02:51:46;;;;;;;2.80;2.60;;;;;;;13.28;100.00;100568.47;105662;1259;60441;-44
2023/07/11 02:54:14;;;;;;;3.30;2.70;;;;;;;13.31;100.00;100564.05;105690;1254;72935;-42
2023/07/11 02:56:42;;;;;;;3.20;2.90;;;;;;;13.33;100.00;100569.19;105710;1253;65220;-43
2023/07/11 02:59:10;;;;;;;3.20;2.60;;;;;;;13.37;100.00;100564.55;105678;1255;72654;-44
2023/07/11 03:01:38;;;;;;;11.20;2.70;;;;;;;13.39;100.00;100563.11;105664;1253;61648;-43
2023/07/11 03:04:07;;;;;;;8.80;2.60;;;;;;;13.42;100.00;100571.55;105727;1253;60557;-44
2023/07/11 03:06:35;;;;;;;3.90;2.60;;;;;;;13.47;100.00;100572.61;105711;1259;72904;-43
2023/07/11 03:09:03;;;;;;;4.80;2.80;;;;;;;13.53;100.00;100571.63;105695;1253;65395;-43
2023/07/11 03:11:31;;;;;;;2.90;2.60;;;;;;;13.58;100.00;100573.19;105668;1259;71452;-43
2023/07/11 03:13:59;;;;;;;5.00;2.50;;;;;;;13.63;100.00;100573.05;105669;1258;60507;-43
2023/07/11 03:16:26;;;;;;;6.90;2.80;;;;;;;13.69;100.00;100574.27;105668;1253;60505;-42
2023/07/11 03:18:54;;;;;;;3.20;2.50;;;;;;;13.75;100.00;100572.88;105602;1253;73397;-44
2023/07/11 03:21:21;;;;;;;4.50;3.10;;;;;;;13.80;100.00;100571.84;105685;1259;63890;-44
2023/07/11 03:23:50;;;;;;;3.00;2.90;;;;;;;13.86;100.00;100573.56;105694;1257;71473;-43
2023/07/11 03:26:18;;;;;;;3.10;2.70;;;;;;;13.93;100.00;100575.97;105673;1253;61643;-44
2023/07/11 03:28:45;;;;;;;3.10;2.90;;;;;;;14.01;100.00;100577.30;105640;1259;60330;-43
2023/07/11 03:31:13;;;;;;;6.60;3.30;;;;;;;14.08;100.00;100581.94;105646;1259;73828;-42
2023/07/11 03:33:40;;;;;;;5.10;3.00;;;;;;;14.17;100.00;100586.02;105645;1259;63939;-42
2023/07/11 03:36:08;;;;;;;2.80;2.60;;;;;;;14.26;100.00;100589.71;105618;1259;72630;-44
2023/07/11 03:38:36;;;;;;;6.00;3.50;;;;;;;14.35;100.00;100589.79;105671;1256;60556;-43
2023/07/11 03:41:04;;;;;;;4.90;3.30;;;;;;;14.45;100.00;100595.71;105636;1253;60449;-43
2023/07/11 03:43:31;;;;;;;4.70;3.00;;;;;;;14.57;100.00;100602.08;105629;1253;73115;-43
2023/07/11 03:45:59;;;;;;;7.40;3.70;;;;;;;14.71;100.00;100609.13;105677;1253;64831;-44
2023/07/11 03:48:28;;;;;;;4.40;3.20;;;;;;;14.88;100.00;100620.90;105666;1255;71039;-42
2023/07/11 03:50:56;;;;;;;3.20;2.90;;;;;;;15.13;100.00;100629.08;105709;1253;60781;-42
2023/07/11 03:53:24;;;;;;;3.20;2.90;;;;;;;15.47;100.00;100640.09;105620;1253;60470;-43
2023/07/11 03:55:51;;;;;;;7.20;3.20;;;;;;;15.85;100.00;100648.11;105653;1253;72634;-43
2023/07/11 03:58:19;;;;;;;6.60;3.10;;;;;;;16.20;100.00;100661.63;105637;1257;65202;-42
2023/07/11 04:00:47;;;;;;;5.10;3.10;;;;;;;16.45;100.00;100685.89;105642;1253;72624;-44
2023/07/11 04:03:15;;;;;;;6.90;2.90;;;;;;;16.60;100.00;100726.77;105630;1259;60557;-44
2023/07/11 04:05:43;;;;;;;7.90;3.00;;;;;;;16.75;100.00;100763.13;105716;1259;60455;-45
2023/07/11 04:08:11;;;;;;;3.40;3.10;;;;;;;16.90;100.00;100793.39;105640;1253;72580;-45
2023/07/11 04:10:39;;;;;;;4.10;3.30;;;;;;;17.01;100.00;100804.46;105693;1253;65179;-41
2023/07/11 04:13:07;;;;;;;5.70;3.60;;;;;;;17.13;100.00;100801.23;105645;1255;71621;-44
2023/07/11 04:15:35;;;;;;;3.30;3.00;;;;;;;17.19;100.00;100771.69;105653;1258;60534;-43
2023/07/11 04:18:02;;;;;;;6.10;3.40;;;;;;;17.29;100.00;100742.15;105661;1253;60618;-43
2023/07/11 04:20:30;;;;;;;13.10;3.90;;;;;;;17.44;100.00;100703.70;105611;1253;72583;-44
2023/07/11 04:22:58;;;;;;;5.00;3.00;;;;;;;17.53;100.00;100639.60;105625;1253;65277;-43
2023/07/11 04:25:25;;;;;;;8.80;4.10;;;;;;;17.64;100.00;100580.50;105636;1254;71762;-43
2023/07/11 04:27:53;;;;;;;3.50;3.20;;;;;;;17.69;100.00;100511.70;105657;1256;61871;-43
2023/07/11 04:30:21;;;;;;;10.40;3.40;;;;;;;17.77;100.00;100473.81;105652;1254;60366;-43
2023/07/11 04:32:51;;;;;;;4.80;3.50;;;;;;;17.92;100.00;100465.38;105714;1253;72563;-43
2023/07/11 04:35:19;;;;;;;6.00;3.30;;;;;;;18.12;100.00;100445.74;105699;1259;63892;-43
2023/07/11 04:37:46;;;;;;;6.40;4.00;;;;;;;18.27;100.00;100403.27;105637;1259;71401;-43
2023/07/11 04:40:14;;;;;;;6.10;3.40;;;;;;;18.27;100.00;100327.14;105641;1259;60441;-44
2023/07/11 04:42:42;;;;;;;6.00;3.50;;;;;;;18.25;100.00;100263.68;105706;1259;60502;-43
2023/07/11 04:45:09;;;;;;;8.00;3.30;;;;;;;18.30;100.00;100251.34;105660;1253;72924;-44
2023/07/11 04:47:37;;;;;;;3.30;2.90;;;;;;;18.31;100.00;100232.44;105630;1253;64007;-43
2023/07/11 04:50:05;;;;;;;3.50;3.10;;;;;;;18.44;100.00;100247.98;105623;1259;71359;-44
2023/07/11 04:52:33;;;;;;;9.20;3.70;;;;;;;18.75;100.00;100283.52;105650;1259;60525;-43
2023/07/11 04:55:01;;;;;;;4.10;3.20;;;;;;;18.98;100.00;100247.42;105654;1259;60550;-42
2023/07/11 04:57:28;;;;;;;3.40;3.10;;;;;;;19.15;100.00;100183.54;105650;1259;72633;-42
2023/07/11 04:59:56;;;;;;;5.50;3.20;;;;;;;19.24;100.00;100115.84;105639;1254;64272;-43
2023/07/11 05:02:23;;;;;;;9.30;3.70;;;;;;;19.29;100.00;100062.56;105953;1259;72613;-44
2023/07/11 05:07:14;;;;;;;6.50;3.90;;;;;;;19.40;100.00;100019.19;102679;1292;601028;-45
2023/07/11 05:09:42;;;;;;;4.00;3.80;;;;;;;19.55;100.00;100033.52;104885;1266;59357;-44
2023/07/11 05:12:26;;;;;;;10.30;4.40;;;;;;;19.57;100.00;99999.63;104800;1266;60488;-43
2023/07/11 05:14:54;;;;;;;5.30;3.60;;;;;;;19.53;100.00;99994.57;104795;1271;72249;-45
2023/07/11 05:17:21;;;;;;;4.10;3.80;;;;;;;19.59;100.00;99999.67;104814;1270;65327;-44
2023/07/11 05:19:49;;;;;;;6.60;4.00;;;;;;;19.75;100.00;100004.45;104951;1268;244336;-45
2023/07/11 05:22:17;;;;;;;3.80;3.60;;;;;;;19.95;100.00;100001.61;105211;1262;60032;-46
2023/07/11 05:24:45;;;;;;;3.90;3.50;;;;;;;20.11;100.00;99992.20;105171;1265;59404;-42
2023/07/11 05:27:12;;;;;;;4.80;4.10;;;;;;;20.14;100.00;99982.90;105214;1265;71996;-43
2023/07/11 05:29:40;;;;;;;7.00;4.30;;;;;;;20.17;100.00;99990.39;105243;1263;62995;-43
2023/07/11 05:32:07;;;;;;;4.00;3.70;;;;;;;20.17;100.00;100002.65;105150;1263;72652;-44
2023/07/11 05:34:35;;;;;;;4.70;3.90;;;;;;;20.27;100.00;100002.51;105105;1264;60072;-42
2023/07/11 05:37:04;;;;;;;5.80;4.00;;;;;;;20.33;100.00;100012.42;105144;1265;59559;-44
2023/07/11 05:39:31;;;;;;;5.80;4.20;;;;;;;20.34;100.00;100017.79;105190;1263;72992;-44
2023/07/11 05:42:00;;;;;;;4.60;4.20;;;;;;;20.46;100.00;100016.55;105161;1263;64079;-43
2023/07/11 05:44:30;;;;;;;7.50;4.80;;;;;;;20.52;100.00;100026.77;105176;1263;71383;-44
2023/07/11 05:46:57;;;;;;;8.40;5.80;;;;;;;20.48;100.00;100046.49;105146;1262;59717;-44
2023/07/11 05:49:25;;;;;;;9.30;5.80;;;;;;;20.49;100.00;100046.64;105148;1260;60814;-42
2023/07/11 05:51:53;;;;;;;6.50;5.70;;;;;;;20.56;100.00;100047.55;105206;1262;72449;-43
2023/07/11 05:54:21;;;;;;;5.40;5.10;;;;;;;20.62;100.00;100045.91;105175;1263;65414;-44
2023/07/11 05:56:48;;;;;;;6.90;6.20;;;;;;;20.83;100.00;100043.17;105129;1263;71393;-45
2023/07/11 05:59:18;;;;;;;8.50;6.60;;;;;;;20.96;100.00;100054.90;105285;1266;59724;-43
2023/07/11 06:01:46;;;;;;;7.60;6.90;;;;;;;21.15;100.00;100056.81;105171;1263;59984;-43
2023/07/11 06:04:16;;;;;;;8.80;8.00;;;;;;;21.37;100.00;100061.95;105178;1266;73717;-45
2023/07/11 08:49:12;;;;;;;4.90;2.60;;;;;;;23.91;70.22;100231.40;105234;1265;66782;-44
2023/07/11 08:51:43;;;;;;;2.70;2.00;;;;;;;23.58;71.18;100261.05;105379;1262;71420;-46
2023/07/11 08:54:20;;;;;;;2.80;2.00;;;;;;;23.57;71.62;100259.52;105289;1261;59700;-46
2023/07/11 08:56:49;;;;;;;2.90;2.60;;;;;;;23.70;71.31;100256.05;105250;1266;59646;-46
2023/07/11 08:59:28;;;;;;;4.80;2.80;;;;;;;23.97;68.67;100222.95;105321;1265;71899;-45
2023/07/11 09:02:00;;;;;;;2.70;2.50;;;;;;;24.35;66.22;100180.48;105363;1264;65179;-45
2023/07/11 09:04:29;;;;;;;2.40;2.20;;;;;;;24.51;64.85;100175.15;105367;1267;71417;-46
2023/07/11 09:07:09;;;;;;;2.20;2.00;;;;;;;24.47;63.89;100170.39;105343;1262;59762;-45
2023/07/11 09:09:37;;;;;;;1.50;1.40;;;;;;;24.67;60.01;100073.85;105318;1266;59979;-46
2023/07/11 09:12:35;;;;;;;3.50;1.70;;;;;;;25.12;57.24;99981.54;105267;1264;71133;-46
2023/07/11 09:15:22;;;;;;;2.40;1.90;;;;;;;25.51;57.30;100020.46;105281;1262;65292;-45
2023/07/11 09:18:18;;;;;;;4.00;1.50;;;;;;;25.50;57.73;100064.36;105222;1266;72615;-45
2023/07/11 09:20:50;;;;;;;4.30;1.70;;;;;;;24.95;58.54;100119.00;105242;1262;60149;-44
2023/07/11 09:23:51;;;;;;;4.70;1.80;;;;;;;24.43;60.45;100204.90;105500;1261;59714;-44
2023/07/11 09:26:27;;;;;;;4.20;2.10;;;;;;;24.00;60.79;100214.83;105315;1259;71831;-45
2023/07/11 09:29:03;;;;;;;;;;;;;;;23.60;61.25;100231.27;105323;1266;65377;-44
2023/07/11 09:31:39;;;;;;;;;;;;;;;23.34;61.72;100240.40;105348;1263;71385;-44
2023/07/11 09:34:23;;;;;;;3.50;2.40;;;;;;;23.12;63.50;100280.61;105571;1266;59653;-44
2023/07/11 09:36:51;;;;;;;2.10;1.90;;;;;;;23.00;63.75;100277.06;105266;1263;60015;-44
2023/07/11 09:39:29;;;;;;;5.10;2.60;;;;;;;22.90;65.87;100315.42;105243;1261;71843;-42
2023/07/11 09:42:32;;;;;;;2.80;1.90;;;;;;;22.77;69.20;100340.10;105268;1261;64332;-44
2023/07/11 09:45:16;;;;;;;3.30;2.10;;;;;;;22.54;75.02;100351.55;105173;1267;72230;-44
2023/07/11 09:47:51;;;;;;;4.40;2.80;;;;;;;22.49;90.79;100364.80;105330;1265;59776;-45
2023/07/11 09:50:47;;;;;;;3.80;2.80;;;;;;;22.64;100.00;100370.36;105225;1265;59650;-45
2023/07/11 09:53:35;;;;;;;4.50;2.50;;;;;;;22.90;100.00;100314.18;105197;1266;72307;-45
2023/07/11 09:56:04;;;;;;;3.90;3.30;;;;;;;23.04;100.00;100275.19;105210;1261;65252;-45
2023/07/11 09:58:34;;;;;;;4.30;3.20;;;;;;;23.07;100.00;100252.79;105279;1264;72400;-45
2023/07/11 10:01:04;;;;;;;3.50;2.50;;;;;;;23.01;100.00;100250.42;105175;1266;59766;-44
2023/07/11 10:03:36;;;;;;;6.10;2.60;;;;;;;22.80;100.00;100255.98;105296;1265;59810;-45
2023/07/11 10:06:04;;;;;;;3.80;2.50;;;;;;;22.60;100.00;100249.51;105577;1261;71827;-44
2023/07/11 10:08:37;;;;;;;3.80;2.50;;;;;;;22.32;100.00;100241.13;105261;1266;64015;-44
2023/07/11 10:11:06;;;;;;;2.70;2.50;;;;;;;22.08;100.00;100221.52;105323;1260;71802;-45
2023/07/11 10:13:34;;;;;;;4.00;2.70;;;;;;;21.99;100.00;100195.28;105257;1265;60377;-44
2023/07/11 10:16:18;;;;;;;2.50;2.30;;;;;;;21.97;100.00;100177.48;105157;1266;59677;-45
2023/07/11 10:18:45;;;;;;;7.50;3.10;;;;;;;22.10;100.00;100164.42;105219;1264;72217;-45
2023/07/11 10:21:18;;;;;;;5.20;2.70;;;;;;;22.20;100.00;100176.98;105371;1264;65273;-43
2023/07/11 10:23:54;;;;;;;4.50;2.60;;;;;;;22.26;100.00;100192.52;105295;1264;72747;-44
2023/07/11 10:26:24;;;;;;;3.00;2.40;;;;;;;22.38;100.00;100202.91;105394;1263;59837;-44
2023/07/11 10:29:07;;;;;;;4.60;2.10;;;;;;;22.54;100.00;100217.48;105307;1266;59589;-44
2023/07/11 10:31:53;;;;;;;2.90;2.00;;;;;;;22.74;100.00;100229.87;105494;1271;71830;-46
2023/07/11 10:34:47;;;;;;;5.60;2.10;;;;;;;22.99;100.00;100238.46;105549;1264;65191;-44
2023/07/11 10:37:39;;;;;;;3.40;2.00;;;;;;;23.29;100.00;100233.45;105463;1263;72648;-43
2023/07/11 10:40:16;;;;;;;2.50;2.30;;;;;;;23.30;100.00;100254.31;105377;1264;60520;-43
2023/07/11 10:43:03;;;;;;;3.20;2.30;;;;;;;23.30;100.00;100273.34;105414;1263;60447;-44
2023/07/11 10:45:35;;;;;;;3.50;2.60;;;;;;;23.24;99.70;100255.66;105759;1257;73806;-46
2023/07/11 10:48:25;;;;;;;5.40;2.20;;;;;;;23.09;100.00;100270.92;105954;1257;65166;-44
2023/07/11 10:51:24;;;;;;;2.30;2.20;;;;;;;23.02;100.00;100287.67;105779;1255;71931;-48
2023/07/11 10:53:59;;;;;;;6.10;2.20;;;;;;;23.12;100.00;100285.15;106030;1254;60555;-45
2023/07/11 10:56:28;;;;;;;2.10;2.00;;;;;;;23.38;100.00;100273.61;105837;1251;60408;-46
2023/07/11 10:58:56;;;;;;;2.40;2.20;;;;;;;23.75;99.79;100261.77;105894;1258;73804;-47
2023/07/11 11:01:27;;;;;;;1.90;1.80;;;;;;;24.25;92.24;100242.08;105934;1257;65234;-45
2023/07/11 11:04:21;;;;;;;1.60;1.50;;;;;;;24.80;79.24;100208.11;105793;1257;71370;-44
2023/07/11 11:07:14;;;;;;;2.90;1.50;;;;;;;25.28;71.77;100183.46;105645;1255;60498;-45
2023/07/11 11:10:04;;;;;;;3.70;1.50;;;;;;;25.56;66.47;100124.31;105875;1256;60437;-46
2023/07/11 11:12:44;;;;;;;5.50;1.70;;;;;;;25.39;62.88;100106.29;105824;1256;73855;-43
2023/07/11 11:15:12;;;;;;;2.00;1.90;;;;;;;25.04;62.29;100131.69;105784;1254;64384;-44
2023/07/11 11:17:55;;;;;;;3.10;1.90;;;;;;;24.58;65.51;100230.66;105731;1256;72762;-45
2023/07/11 11:20:42;;;;;;;4.00;2.00;;;;;;;24.35;68.01;100269.48;105773;1266;60642;-44
2023/07/11 11:23:47;;;;;;;9.60;1.80;;;;;;;24.34;73.17;100297.14;105795;1257;60586;-44
2023/07/11 11:26:32;;;;;;;3.00;1.90;;;;;;;24.26;74.01;100290.52;105873;1257;72514;-46
2023/07/11 11:29:10;;;;;;;5.40;1.90;;;;;;;24.14;77.24;100301.70;105779;1255;64172;-46
2023/07/11 11:31:55;;;;;;;2.20;1.70;;;;;;;24.11;70.50;100241.65;105722;1255;71672;-43
2023/07/11 11:34:40;;;;;;;2.10;1.70;;;;;;;24.18;68.71;100234.80;105813;1254;60439;-44
2023/07/11 11:37:40;;;;;;;4.60;1.80;;;;;;;24.30;74.32;100297.97;105868;1253;60497;-45
2023/07/11 11:40:28;;;;;;;2.40;2.30;;;;;;;24.54;74.91;100280.05;105711;1258;73830;-44
2023/07/11 11:43:04;;;;;;;2.50;2.30;;;;;;;24.50;75.45;100286.91;105865;1257;65173;-45
2023/07/11 11:45:44;;;;;;;1.90;1.80;;;;;;;24.18;72.56;100276.13;105834;1256;71358;-44
2023/07/11 11:48:24;;;;;;;4.00;2.30;;;;;;;23.93;82.34;100320.83;105695;1258;61093;-45
2023/07/11 11:50:55;;;;;;;4.60;1.80;;;;;;;24.11;83.21;100300.13;105918;1257;60527;-46
2023/07/11 11:53:44;;;;;;;1.70;1.60;;;;;;;24.49;73.46;100249.05;105894;1256;73794;-44
2023/07/11 11:56:13;;;;;;;4.40;1.50;;;;;;;24.73;66.70;100170.95;105940;1258;64003;-44
2023/07/11 11:58:57;;;;;;;2.00;1.60;;;;;;;24.74;63.79;100140.70;105801;1256;71384;-46
2023/07/11 12:01:41;;;;;;;1.50;1.50;;;;;;;24.64;64.63;100190.73;105895;1257;60437;-46
2023/07/11 12:04:27;;;;;;;2.40;1.60;;;;;;;24.52;64.96;100211.10;105894;1251;60578;-44
2023/07/11 12:07:01;;;;;;;4.20;1.50;;;;;;;24.40;66.90;100250.79;105915;1257;72146;-46
2023/07/11 12:09:48;;;;;;;1.80;1.50;;;;;;;24.32;69.62;100286.52;105907;1256;64291;-44
2023/07/11 12:12:20;;;;;;;2.00;1.90;;;;;;;24.44;67.03;100232.68;106037;1257;71650;-46
2023/07/11 12:14:51;;;;;;;7.40;1.70;;;;;;;24.46;66.19;100216.65;105827;1254;62410;-46
2023/07/11 12:17:32;;;;;;;2.50;1.60;;;;;;;24.65;67.22;100236.83;105965;1253;60539;-47
2023/07/11 12:20:01;;;;;;;2.80;2.00;;;;;;;24.99;63.93;100167.25;105894;1251;73990;-45
2023/07/11 12:22:38;;;;;;;3.60;1.30;;;;;;;25.15;63.03;100171.73;105871;1257;67503;-46
2023/07/11 12:25:07;;;;;;;2.70;1.70;;;;;;;25.31;63.20;100179.30;105928;1256;71443;-46
2023/07/11 12:27:34;;;;;;;2.60;1.80;;;;;;;25.69;63.12;100181.23;105962;1257;60887;-43
2023/07/11 12:30:24;;;;;;;1.20;1.20;;;;;;;25.80;60.78;100127.52;105750;1257;60616;-43
2023/07/11 12:32:55;;;;;;;1.60;1.40;;;;;;;25.41;57.58;100054.20;105797;1254;72193;-43
2023/07/11 12:35:24;;;;;;;1.60;1.50;;;;;;;24.72;59.15;100143.34;105952;1251;63910;-45
2023/07/11 12:38:00;;;;;;;1.40;1.40;;;;;;;24.29;62.03;100248.49;105859;1251;72582;-44
2023/07/11 12:40:45;;;;;;;8.70;1.50;;;;;;;23.97;62.37;100253.65;105932;1257;60472;-43
2023/07/11 12:43:26;;;;;;;5.80;1.40;;;;;;;23.52;63.15;100269.23;105774;1257;60370;-45
2023/07/11 12:45:57;;;;;;;5.90;1.70;;;;;;;23.20;65.37;100306.73;105727;1251;73803;-44
2023/07/11 12:48:31;;;;;;;2.10;1.40;;;;;;;23.09;66.92;100304.70;105887;1256;64038;-44
2023/07/11 12:51:22;;;;;;;2.30;1.60;;;;;;;23.00;69.07;100312.48;105935;1258;73067;-44
2023/07/11 12:53:57;;;;;;;1.30;1.20;;;;;;;22.91;68.39;100295.98;105962;1252;60430;-44
2023/07/11 12:56:26;;;;;;;;;;;;;;;22.88;69.50;100308.40;105820;1254;60609;-46
2023/07/11 12:58:54;;;;;;;3.40;1.60;;;;;;;22.78;71.95;100317.89;105700;1251;72563;-46
2023/07/11 13:01:22;;;;;;;2.40;1.30;;;;;;;22.57;77.20;100342.02;105956;1257;65638;-45
2023/07/11 13:03:50;;;;;;;1.30;1.30;;;;;;;22.33;78.38;100327.48;105851;1251;71397;-47
2023/07/11 13:06:25;;;;;;;2.00;1.20;;;;;;;22.11;80.00;100325.56;105803;1253;60458;-44
2023/07/11 13:08:53;;;;;;;;;;;;;;;21.96;95.85;100349.02;105956;1254;60811;-44
2023/07/11 13:11:26;;;;;;;2.40;1.20;;;;;;;22.12;100.00;100343.55;105808;1257;73769;-46
2023/07/11 13:13:56;;;;;;;3.90;1.50;;;;;;;22.51;98.88;100311.17;106071;1253;64015;-46
2023/07/11 13:16:30;;;;;;;3.60;1.10;;;;;;;23.05;91.64;100288.67;105855;1257;71365;-44
2023/07/11 13:18:57;;;;;;;4.50;1.40;;;;;;;23.68;76.01;100239.10;105707;1259;60527;-46
2023/07/11 13:21:25;;;;;;;3.30;0.90;;;;;;;24.13;70.17;100214.11;105670;1255;60448;-46
2023/07/11 13:23:53;;;;;;;2.50;1.10;;;;;;;24.51;64.70;100132.50;105772;1251;73846;-45
2023/07/11 13:26:27;;;;;;;1.20;1.00;;;;;;;24.78;59.04;100029.76;105837;1251;63661;-45
2023/07/11 13:29:04;;;;;;;1.20;1.10;;;;;;;24.98;57.97;100032.11;105859;1257;72716;-44
2023/07/11 13:31:33;;;;;;;1.90;1.20;;;;;;;25.03;57.46;100044.59;105897;1251;61154;-45
2023/07/11 13:34:02;;;;;;;0.90;0.90;;;;;;;25.15;58.73;100113.48;105958;1251;60491;-45
2023/07/11 13:36:31;;;;;;;7.90;1.20;;;;;;;25.36;59.66;100147.48;105783;1257;73951;-49
2023/07/11 13:39:06;;;;;;;1.80;1.30;;;;;;;25.55;58.92;100126.13;105863;1254;65333;-44
2023/07/11 13:41:35;;;;;;;4.00;1.10;;;;;;;25.67;57.62;100086.56;105849;1251;73135;-45
2023/07/11 13:44:15;;;;;;;1.30;1.20;;;;;;;25.59;55.39;100001.42;105965;1256;60553;-45
2023/07/11 13:46:43;;;;;;;3.10;1.20;;;;;;;25.46;56.23;100077.95;105851;1254;60646;-45
2023/07/11 13:49:20;;;;;;;2.30;1.40;;;;;;;25.66;57.36;100129.37;105734;1251;72600;-46
2023/07/11 13:51:48;;;;;;;2.90;1.30;;;;;;;25.81;55.00;100026.00;105938;1250;65170;-46
2023/07/11 13:54:21;;;;;;;1.70;1.20;;;;;;;25.62;54.15;100000.25;105998;1257;71995;-44
2023/07/11 13:56:49;;;;;;;7.10;1.30;;;;;;;25.44;54.49;100050.91;106013;1256;60565;-46
2023/07/11 13:59:16;;;;;;;2.50;1.30;;;;;;;25.39;56.63;100156.79;105829;1253;60449;-45
2023/07/11 14:01:53;;;;;;;2.50;1.30;;;;;;;25.56;58.30;100202.88;105934;1257;72852;-44
2023/07/11 14:04:33;;;;;;;3.10;1.60;;;;;;;25.57;56.75;100148.95;105902;1251;64067;-45
2023/07/11 14:07:01;;;;;;;1.60;1.50;;;;;;;25.25;56.89;100169.46;105835;1254;71958;-45
2023/07/11 14:09:29;;;;;;;1.50;1.40;;;;;;;24.83;57.25;100182.44;105870;1257;60549;-46
2023/07/11 14:11:57;;;;;;;4.70;1.20;;;;;;;24.53;58.14;100223.88;105943;1254;60552;-44
2023/07/11 14:14:25;;;;;;;1.20;1.10;;;;;;;24.21;58.40;100230.48;105824;1257;72929;-44
2023/07/11 14:17:15;;;;;;;3.40;1.40;;;;;;;23.85;58.53;100235.66;105842;1257;65166;-45
2023/07/11 14:19:43;;;;;;;4.30;1.50;;;;;;;23.58;60.25;100284.61;105852;1257;71379;-45